Time;durP1;ratioP1;P1;durP2;ratioP2;P2;SDS_P1;SDS_P2;PMS_P1;PMS_P2;Temp;Humidity;BMP_temperature;BMP_pressure;BME280_temperature;BME280_humidity;BME280_pressure;Samples;Min_cycle;Max_cycle;Signal;HPM_P1;HPM_P2
2022/09/18 00:01:14;;;;;;;;;;;17.60;75.60;;;16.83;100.00;83433.78;4258543;33;19963;-85
2022/09/18 00:03:43;;;;;;;;;;;17.60;75.70;;;16.80;100.00;83430.22;4235367;33;19997;-85
2022/09/18 00:06:13;;;;;;;;;;;17.60;75.60;;;-151.14;100.00;62537.16;4235258;33;20009;-85
2022/09/18 00:08:43;;;;;;;;;;;17.60;75.70;;;16.82;100.00;62537.16;4235043;33;19996;-85
2022/09/18 00:11:13;;;;;;;;;;;17.60;75.70;;;16.81;100.00;83431.66;4235302;33;20221;-85
2022/09/18 00:13:42;;;;;;;;;;;17.60;75.80;;;16.81;100.00;62537.16;4266025;33;20028;-86
2022/09/18 00:16:13;;;;;;;;;;;17.60;75.80;;;16.82;100.00;62537.16;4265728;33;19902;-85
2022/09/18 00:18:42;;;;;;;;;;;17.60;75.70;;;16.81;100.00;83431.66;4289710;33;19924;-85
2022/09/18 00:21:12;;;;;;;;;;;17.60;75.70;;;-151.14;100.00;62537.16;4289934;33;19918;-86
2022/09/18 00:23:41;;;;;;;;;;;17.60;75.80;;;16.81;100.00;83431.66;4290028;33;19909;-85
2022/09/18 00:26:10;;;;;;;;;;;17.60;75.80;;;16.81;100.00;62537.16;4265808;33;19975;-85
2022/09/18 00:28:39;;;;;;;;;;;17.60;75.80;;;16.80;100.00;83430.22;4289637;33;19902;-85
2022/09/18 00:31:08;;;;;;;;;;;17.60;75.70;;;-151.14;100.00;62537.16;4265859;33;19902;-85
2022/09/18 00:33:38;;;;;;;;;;;17.60;75.80;;;16.80;100.00;62537.16;4289623;33;19901;-85
2022/09/18 00:36:09;;;;;;;;;;;17.60;75.70;;;16.81;100.00;62537.16;4265904;33;20217;-85
2022/09/18 00:38:37;;;;;;;;;;;17.60;75.80;;;16.80;100.00;83429.50;4289510;33;19902;-85
2022/09/18 00:41:07;;;;;;;;;;;17.60;75.80;;;16.79;100.00;62537.16;4289751;33;19908;-86
2022/09/18 00:43:37;;;;;;;;;;;17.60;75.60;;;-151.14;100.00;62537.16;4289693;33;19967;-85
2022/09/18 00:46:07;;;;;;;;;;;17.60;75.70;;;16.79;100.00;83428.09;4289510;33;19903;-85
2022/09/18 00:48:42;;;;;;;;;;;17.60;75.60;;;-151.14;100.00;62537.16;4289223;33;19902;-85
2022/09/18 00:51:10;;;;;;;;;;;17.60;75.50;;;16.78;100.00;62537.16;4265626;33;20172;-85
2022/09/18 00:53:40;;;;;;;;;;;17.60;75.60;;;-151.14;100.00;62537.16;4265334;33;19901;-85
2022/09/18 00:56:09;;;;;;;;;;;17.60;75.60;;;16.76;100.00;83424.53;4265546;33;19918;-85
2022/09/18 00:58:37;;;;;;;;;;;17.60;75.70;;;16.79;100.00;83428.09;4265387;33;19909;-86
2022/09/18 01:01:07;;;;;;;;;;;17.60;75.70;;;-151.14;100.00;62537.16;4289476;33;19962;-85
2022/09/18 01:03:36;;;;;;;;;;;17.60;76.30;;;-151.14;100.00;62537.16;4265235;33;20028;-85
2022/09/18 01:06:13;;;;;;;;;;;17.60;75.60;;;16.78;100.00;83426.69;4265619;33;19909;-85
2022/09/18 01:09:01;;;;;;;;;;;17.60;75.50;;;16.75;100.00;62537.16;4265146;33;19902;-86
2022/09/18 01:11:36;;;;;;;;;;;17.60;75.60;;;16.76;100.00;83424.19;4265486;33;20000;-85
2022/09/18 01:14:23;;;;;;;;;;;17.60;75.70;;;-151.14;100.00;62537.16;4265122;33;19909;-85
2022/09/18 01:16:58;;;;;;;;;;;17.60;75.70;;;16.74;100.00;62537.16;4265183;33;19917;-85
2022/09/18 01:20:01;;;;;;;;;;;17.60;75.80;;;16.74;100.00;83421.69;4288956;33;19909;-85
2022/09/18 01:22:43;;;;;;;;;;;17.60;75.80;;;16.74;100.00;83421.00;4265356;33;20228;-85
2022/09/18 01:25:21;;;;;;;;;;;17.50;75.60;;;16.72;100.00;62537.16;4289208;33;19909;-85
2022/09/18 01:28:04;;;;;;;;;;;17.50;75.60;;;16.74;100.00;83421.00;4288948;33;19902;-85
2022/09/18 01:30:33;;;;;;;;;;;17.50;75.60;;;-151.14;100.00;62537.16;4265215;33;19997;-85
2022/09/18 01:33:05;;;;;;;;;;;17.50;75.60;;;-151.14;100.00;62537.16;4265128;33;19902;-85
2022/09/18 01:35:38;;;;;;;;;;;17.50;75.60;;;16.72;100.00;83418.84;4289064;33;19901;-85
2022/09/18 01:38:10;;;;;;;;;;;17.50;75.70;;;16.71;100.00;83417.44;4288754;33;19902;-86
2022/09/18 01:40:41;;;;;;;;;;;17.50;75.80;;;16.71;100.00;83417.44;4289021;33;19913;-86
2022/09/18 01:43:13;;;;;;;;;;;17.50;75.70;;;16.70;100.00;62537.16;4264584;33;20222;-85
2022/09/18 01:45:45;;;;;;;;;;;17.50;75.60;;;16.71;100.00;62537.16;4265104;33;19908;-85
2022/09/18 01:48:20;;;;;;;;;;;17.50;75.60;;;16.70;100.00;83416.72;4264443;33;19925;-85
2022/09/18 01:50:53;;;;;;;;;;;17.50;75.50;;;16.70;100.00;62537.16;4265168;33;20027;-84
2022/09/18 01:53:24;;;;;;;;;;;17.50;75.60;;;16.69;100.00;62537.16;4312961;33;19924;-85
2022/09/18 01:55:56;;;;;;;;;;;17.50;75.90;;;16.70;100.00;62537.16;4264810;33;19909;-85
2022/09/18 01:58:27;;;;;;;;;;;17.50;75.40;;;16.70;100.00;83416.03;4264445;33;19902;-85
2022/09/18 02:00:58;;;;;;;;;;;17.50;75.60;;;18.08;100.00;62537.16;4264878;33;20110;-85
2022/09/18 02:03:29;;;;;;;;;;;17.50;75.60;;;16.69;100.00;83415.28;4312886;33;19909;-85
2022/09/18 02:06:00;;;;;;;;;;;17.50;75.70;;;-151.14;100.00;62537.16;4264918;33;20121;-85
2022/09/18 02:08:30;;;;;;;;;;;17.50;75.60;;;-151.14;100.00;62537.16;4288356;33;19985;-85
2022/09/18 02:11:05;;;;;;;;;;;17.50;75.50;;;16.67;100.00;83411.75;4288569;33;19902;-85
2022/09/18 02:13:36;;;;;;;;;;;17.50;75.50;;;16.69;100.00;83414.59;4312924;33;20250;-85
2022/09/18 02:16:10;;;;;;;;;;;17.50;75.60;;;16.68;100.00;62537.16;4264488;33;19901;-85
2022/09/18 02:18:42;;;;;;;;;;;17.50;75.50;;;16.68;100.00;83413.19;4264601;33;20000;-85
2022/09/18 02:21:13;;;;;;;;;;;17.50;75.60;;;16.67;100.00;83411.75;4288458;33;19902;-85
2022/09/18 02:23:42;;;;;;;;;;;17.50;75.70;;;16.65;100.00;62537.16;4288546;33;19902;-85
2022/09/18 02:26:12;;;;;;;;;;;17.50;75.60;;;16.66;100.00;83410.34;4288565;33;19951;-85
2022/09/18 02:28:42;;;;;;;;;;;17.50;75.60;;;-151.14;100.00;62537.16;4288392;33;19984;-86
2022/09/18 02:31:11;;;;;;;;;;;17.50;75.60;;;16.65;100.00;62537.16;4264516;33;19902;-85
2022/09/18 02:33:40;;;;;;;;;;;17.50;75.50;;;16.65;100.00;62537.16;4288414;33;20221;-85
2022/09/18 02:36:38;;;;;;;;;;;17.50;75.50;;;16.65;100.00;83408.91;4287733;33;19956;-85
2022/09/18 02:39:18;;;;;;;;;;;17.50;75.50;;;-151.14;100.00;62537.16;4264509;33;19909;-86
2022/09/18 02:41:51;;;;;;;;;;;17.40;75.40;;;-151.14;100.00;62537.16;4264355;33;20223;-86
2022/09/18 02:44:26;;;;;;;;;;;17.40;75.40;;;16.63;100.00;62537.16;4264430;33;20240;-85
2022/09/18 02:47:01;;;;;;;;;;;17.40;75.40;;;-151.14;100.00;62537.16;4264244;33;20124;-86
2022/09/18 02:49:38;;;;;;;;;;;17.40;75.70;;;-151.14;100.00;62537.16;4336597;32;20008;-85
2022/09/18 02:52:09;;;;;;;;;;;17.40;75.50;;;16.62;100.00;62537.16;4311674;33;19902;-85
2022/09/18 02:54:41;;;;;;;;;;;17.40;75.50;;;-151.14;100.00;62537.16;4263953;33;19989;-85
2022/09/18 02:57:13;;;;;;;;;;;17.40;75.50;;;-151.14;100.00;62537.16;4264093;33;19996;-85
2022/09/18 02:59:46;;;;;;;;;;;17.40;75.50;;;16.61;100.00;62537.16;4336679;32;19902;-85
2022/09/18 03:02:16;;;;;;;;;;;17.40;75.40;;;-151.14;100.00;62537.16;4288161;33;20240;-84
2022/09/18 03:04:44;;;;;;;;;;;17.40;75.50;;;-151.14;100.00;62537.16;4312081;33;20221;-86
2022/09/18 03:07:19;;;;;;;;;;;17.40;75.40;;;16.60;100.00;62537.16;4264168;33;19902;-85
2022/09/18 03:09:49;;;;;;;;;;;17.40;75.60;;;-151.14;100.00;62537.16;4263870;33;20000;-85
2022/09/18 03:12:18;;;;;;;;;;;17.40;75.40;;;-151.14;100.00;62537.16;4287948;33;19992;-85
2022/09/18 03:14:51;;;;;;;;;;;17.40;75.50;;;-151.14;100.00;62537.16;4287910;33;19902;-86
2022/09/18 03:17:19;;;;;;;;;;;17.40;75.20;;;-151.14;100.00;62537.16;4263961;33;19901;-85
2022/09/18 03:19:48;;;;;;;;;;;17.40;75.10;;;-151.14;100.00;62537.16;4263763;33;20008;-85
2022/09/18 03:22:16;;;;;;;;;;;17.40;75.20;;;-151.14;100.00;62537.16;4263656;33;19902;-85
2022/09/18 03:24:45;;;;;;;;;;;17.40;75.20;;;-151.14;100.00;62537.16;4287982;33;19997;-85
2022/09/18 03:27:16;;;;;;;;;;;17.40;75.30;;;-151.14;100.00;62537.16;4288017;33;19902;-85
2022/09/18 03:29:45;;;;;;;;;;;17.40;75.20;;;-151.14;100.00;62537.16;4263959;33;20010;-85
2022/09/18 03:32:15;;;;;;;;;;;17.40;75.20;;;-151.14;100.00;62537.16;4263666;33;20003;-85
2022/09/18 03:34:47;;;;;;;;;;;17.40;75.20;;;-151.14;100.00;62537.16;4263763;33;19902;-85
2022/09/18 03:37:17;;;;;;;;;;;17.40;75.40;;;102.80;100.00;62537.16;4263876;33;20255;-85
2022/09/18 03:39:47;;;;;;;;;;;17.40;75.40;;;-151.14;100.00;62537.16;4264099;33;19921;-85
2022/09/18 03:42:16;;;;;;;;;;;17.40;75.40;;;-151.14;100.00;62537.16;4287781;33;19902;-85
2022/09/18 03:44:44;;;;;;;;;;;17.40;75.20;;;-151.14;100.00;62537.16;4263801;33;19902;-86
2022/09/18 03:47:27;;;;;;;;;;;17.40;75.30;;;-151.14;100.00;62537.16;4265387;33;19909;-85
2022/09/18 03:49:55;;;;;;;;;;;17.40;75.20;;;-151.14;100.00;62537.16;4266280;33;19981;-85
2022/09/18 03:52:24;;;;;;;;;;;17.40;75.20;;;-151.14;100.00;62537.16;4290299;33;19901;-85
2022/09/18 03:55:02;;;;;;;;;;;17.40;75.30;;;-151.14;100.00;62537.16;4266088;33;19902;-85
2022/09/18 03:58:06;;;;;;;;;;;17.30;75.20;;;-151.14;100.00;62537.16;4232136;33;19984;-85
2022/09/18 04:01:03;;;;;;;;;;;17.30;75.10;;;16.75;100.00;62537.16;4190533;33;20136;-85
2022/09/18 04:03:43;;;;;;;;;;;17.30;75.40;;;-151.14;100.00;62537.16;4266204;33;19909;-85
2022/09/18 04:06:30;;;;;;;;;;;17.30;75.20;;;16.51;100.00;62537.16;4290918;33;19916;-85
2022/09/18 04:09:12;;;;;;;;;;;17.30;75.10;;;-151.14;100.00;62537.16;4265947;33;20219;-86
2022/09/18 04:11:49;;;;;;;;;;;17.30;75.10;;;-151.14;100.00;62537.16;4265954;33;20244;-85
2022/09/18 04:14:17;;;;;;;;;;;17.30;75.20;;;-151.14;100.00;62537.16;4266192;33;19996;-85
2022/09/18 04:16:47;;;;;;;;;;;17.30;75.30;;;-151.14;100.00;62537.16;4266008;33;19902;-85
2022/09/18 04:19:17;;;;;;;;;;;17.30;75.20;;;-151.14;100.00;62537.16;4265922;33;19902;-85
2022/09/18 04:21:45;;;;;;;;;;;17.30;75.30;;;187.61;100.00;62537.16;4265937;33;20221;-85
2022/09/18 04:24:15;;;;;;;;;;;17.30;75.10;;;-151.14;100.00;62537.16;4265596;33;19993;-85
2022/09/18 04:26:43;;;;;;;;;;;17.30;75.10;;;-151.14;100.00;62537.16;4289737;33;20208;-86
2022/09/18 04:29:12;;;;;;;;;;;17.30;75.20;;;187.61;100.00;62537.16;4265842;33;19902;-86
2022/09/18 04:31:40;;;;;;;;;;;17.30;75.20;;;187.61;100.00;62537.16;4289494;33;19981;-85
2022/09/18 04:34:14;;;;;;;;;;;17.20;74.80;;;-151.14;100.00;62537.16;4265853;33;19901;-85
2022/09/18 04:36:45;;;;;;;;;;;17.30;75.10;;;187.61;100.00;62537.16;4289946;33;20145;-85
2022/09/18 04:39:13;;;;;;;;;;;17.40;75.00;;;18.08;100.00;62537.16;4265900;33;19909;-85
2022/09/18 04:41:44;;;;;;;;;;;17.50;74.70;;;-151.14;100.00;62537.16;4265771;33;19902;-85
2022/09/18 04:44:12;;;;;;;;;;;17.60;74.10;;;18.08;100.00;62537.16;4289705;33;19925;-84
2022/09/18 04:46:41;;;;;;;;;;;17.60;73.70;;;-151.14;100.00;62537.16;4265648;33;19902;-85
2022/09/18 04:49:10;;;;;;;;;;;17.60;73.30;;;-151.14;100.00;62537.16;4265638;33;19902;-85
2022/09/18 04:51:39;;;;;;;;;;;17.60;73.20;;;-151.14;100.00;62537.16;4265641;33;19902;-85
2022/09/18 04:54:10;;;;;;;;;;;17.60;73.30;;;-151.14;100.00;62537.16;4265790;33;19932;-85
2022/09/18 04:56:40;;;;;;;;;;;17.60;73.50;;;-151.14;100.00;62537.16;4289265;33;20114;-86
2022/09/18 04:59:09;;;;;;;;;;;17.70;72.90;;;-151.14;100.00;62537.16;4265356;33;20137;-85
2022/09/18 05:01:41;;;;;;;;;;;17.90;72.10;;;-151.14;100.00;62537.16;4265494;33;19908;-84
2022/09/18 05:04:13;;;;;;;;;;;18.10;71.20;;;-151.14;100.00;62537.16;4265549;33;20008;-86
2022/09/18 05:06:53;;;;;;;;;;;18.30;70.20;;;-151.14;100.00;62537.16;4265278;33;19967;-85
2022/09/18 05:09:23;;;;;;;;;;;18.50;69.70;;;17.82;100.00;62537.16;4265245;33;19901;-84
2022/09/18 05:11:53;;;;;;;;;;;18.60;69.40;;;17.83;100.00;62537.16;4265189;33;19909;-85
2022/09/18 05:14:23;;;;;;;;;;;18.60;68.40;;;-151.14;100.00;62537.16;4265234;33;19908;-86
2022/09/18 05:16:55;;;;;;;;;;;18.60;68.70;;;-151.14;100.00;62537.16;4265735;33;19902;-86
2022/09/18 05:19:30;;;;;;;;;;;18.50;68.60;;;17.43;100.00;62537.16;4289208;33;19901;-85
2022/09/18 05:22:10;;;;;;;;;;;18.40;68.90;;;-151.14;100.00;62537.16;4289359;33;20121;-85
2022/09/18 05:24:45;;;;;;;;;;;18.30;69.40;;;-151.14;100.00;62537.16;4289261;33;19988;-86
2022/09/18 05:27:15;;;;;;;;;;;18.20;68.80;;;-151.14;100.00;62537.16;4265148;33;19902;-86
2022/09/18 05:29:44;;;;;;;;;;;18.20;69.60;;;-151.14;100.00;62537.16;4265042;33;19909;-85
2022/09/18 05:32:20;;;;;;;;;;;18.10;69.80;;;-151.14;100.00;62537.16;4265044;33;19967;-86
2022/09/18 05:34:49;;;;;;;;;;;18.00;70.00;;;-151.14;100.00;62537.16;4265087;33;20137;-85
2022/09/18 05:37:19;;;;;;;;;;;18.00;70.50;;;-151.14;100.00;62537.16;4337888;32;19909;-85
2022/09/18 05:39:53;;;;;;;;;;;17.90;70.60;;;-151.14;100.00;62537.16;4264979;33;19985;-85
2022/09/18 05:42:21;;;;;;;;;;;17.80;70.70;;;187.61;100.00;62537.16;4264821;33;19993;-85
2022/09/18 05:44:51;;;;;;;;;;;17.80;71.00;;;-151.14;100.00;62537.16;4289014;33;19986;-86
2022/09/18 05:47:24;;;;;;;;;;;17.80;71.00;;;-151.14;100.00;62537.16;4264970;33;19917;-85
2022/09/18 05:49:53;;;;;;;;;;;17.80;70.90;;;-151.14;100.00;62537.16;4264990;33;19902;-85
2022/09/18 05:52:24;;;;;;;;;;;17.80;71.00;;;-151.14;100.00;62537.16;4313044;33;19910;-85
2022/09/18 05:54:55;;;;;;;;;;;17.80;71.20;;;-151.14;100.00;62537.16;4313002;33;19924;-85
2022/09/18 05:57:24;;;;;;;;;;;17.70;71.20;;;-151.14;100.00;62537.16;4264630;33;19902;-85
2022/09/18 05:59:52;;;;;;;;;;;17.70;71.30;;;-151.14;100.00;62537.16;4264678;33;19902;-85
2022/09/18 06:02:21;;;;;;;;;;;17.70;71.60;;;-151.14;100.00;62537.16;4264750;33;20128;-85
2022/09/18 06:05:04;;;;;;;;;;;17.70;71.60;;;-151.14;100.00;62537.16;4264726;33;19902;-85
2022/09/18 06:07:33;;;;;;;;;;;17.60;71.40;;;-151.14;100.00;62537.16;4264496;33;19902;-85
2022/09/18 06:10:03;;;;;;;;;;;17.60;71.80;;;-151.14;100.00;62537.16;4288065;33;19902;-85
2022/09/18 06:12:33;;;;;;;;;;;17.60;71.90;;;-151.14;100.00;62537.16;4288648;33;19985;-85
2022/09/18 06:15:03;;;;;;;;;;;17.60;71.90;;;16.69;100.00;62537.16;4264712;33;20129;-85
2022/09/18 06:17:32;;;;;;;;;;;17.60;72.00;;;-151.14;100.00;62537.16;4337207;32;20206;-85
2022/09/18 06:20:04;;;;;;;;;;;17.50;72.00;;;16.67;100.00;62537.16;4264544;33;20232;-84
2022/09/18 06:22:33;;;;;;;;;;;17.50;71.90;;;16.67;100.00;62537.16;4288451;33;20228;-85
2022/09/18 06:25:03;;;;;;;;;;;17.50;72.10;;;16.66;100.00;62537.16;4288618;33;19985;-85
2022/09/18 06:27:35;;;;;;;;;;;17.50;71.80;;;-151.14;100.00;62537.16;4264115;33;19997;-85
2022/09/18 06:30:04;;;;;;;;;;;17.50;71.90;;;-151.14;100.00;62537.16;4264651;33;19902;-84
2022/09/18 06:32:35;;;;;;;;;;;17.50;71.80;;;-151.14;100.00;62537.16;4337028;32;19902;-85
2022/09/18 06:35:05;;;;;;;;;;;17.50;71.80;;;-151.14;100.00;62537.16;4288302;33;20217;-85
2022/09/18 06:37:33;;;;;;;;;;;17.50;71.70;;;-151.14;100.00;62537.16;4264187;33;19901;-85
2022/09/18 06:40:21;;;;;;;;;;;17.50;71.50;;;-151.14;100.00;62537.16;4288434;33;20289;-85
2022/09/18 06:43:09;;;;;;;;;;;17.50;71.80;;;-151.14;100.00;62537.16;4288276;33;19952;-85
2022/09/18 06:45:51;;;;;;;;;;;17.50;71.80;;;16.65;100.00;62537.16;4288180;33;19960;-85
2022/09/18 06:48:23;;;;;;;;;;;17.50;72.00;;;-151.14;100.00;62537.16;4264128;33;19902;-85
2022/09/18 06:50:53;;;;;;;;;;;17.50;72.10;;;16.60;100.00;62537.16;4264188;33;19902;-85
2022/09/18 06:53:22;;;;;;;;;;;17.40;72.10;;;-151.14;100.00;62537.16;4288354;33;19902;-85
2022/09/18 06:55:58;;;;;;;;;;;17.40;72.30;;;-151.14;100.00;62537.16;4287952;33;19910;-85
2022/09/18 06:58:27;;;;;;;;;;;17.40;72.20;;;-151.14;100.00;62537.16;4263927;33;19902;-85
2022/09/18 07:00:59;;;;;;;;;;;17.50;72.10;;;-151.14;100.00;62537.16;4264351;33;19902;-85
2022/09/18 07:03:33;;;;;;;;;;;17.50;71.80;;;-151.14;100.00;62537.16;4288025;33;19902;-85
2022/09/18 07:06:20;;;;;;;;;;;17.50;71.80;;;-151.14;100.00;62537.16;4264181;33;19955;-85
2022/09/18 07:08:51;;;;;;;;;;;17.50;71.60;;;-151.14;100.00;62537.16;4287732;33;19923;-85
2022/09/18 07:11:34;;;;;;;;;;;17.50;71.50;;;-151.14;100.00;62537.16;4312351;33;19909;-85
2022/09/18 07:14:06;;;;;;;;;;;17.60;72.10;;;-151.14;100.00;62537.16;4312086;33;19905;-85
2022/09/18 07:16:34;;;;;;;;;;;17.60;72.60;;;-151.14;100.00;62537.16;4263813;33;20222;-85
2022/09/18 07:19:05;;;;;;;;;;;17.70;72.90;;;-151.14;100.00;62537.16;4263707;33;19953;-85
2022/09/18 07:21:34;;;;;;;;;;;17.80;72.50;;;-151.14;100.00;62537.16;4289758;33;19902;-85
2022/09/18 07:24:03;;;;;;;;;;;17.80;72.30;;;-151.14;100.00;62537.16;4266037;33;19902;-85
2022/09/18 07:26:35;;;;;;;;;;;17.90;72.10;;;18.08;100.00;62537.16;4261555;33;19909;-85
2022/09/18 07:29:04;;;;;;;;;;;17.90;72.10;;;-151.14;100.00;62537.16;4261734;33;19925;-85
2022/09/18 07:31:35;;;;;;;;;;;17.90;71.60;;;-151.14;100.00;62537.16;4285629;33;19925;-84
2022/09/18 07:34:08;;;;;;;;;;;17.90;71.80;;;-151.14;100.00;62537.16;4285527;33;19910;-84
2022/09/18 07:36:37;;;;;;;;;;;17.90;72.10;;;17.06;100.00;62537.16;4238015;33;20107;-84
2022/09/18 07:39:06;;;;;;;;;;;17.90;72.10;;;-151.14;100.00;62537.16;4261293;33;19925;-84
2022/09/18 07:41:51;;;;;;;;;;;17.90;73.10;;;-151.14;100.00;62537.16;4261696;33;20244;-85
2022/09/18 07:44:19;;;;;;;;;;;17.80;71.60;;;-151.14;100.00;62537.16;4237759;33;19925;-84
2022/09/18 07:46:49;;;;;;;;;;;17.80;71.50;;;-151.14;100.00;62537.16;4309513;33;20238;-85
2022/09/18 07:49:18;;;;;;;;;;;17.80;72.00;;;-151.14;100.00;62537.16;4285184;33;19902;-85
2022/09/18 07:51:48;;;;;;;;;;;17.80;72.10;;;-151.14;100.00;62537.16;4261506;33;19980;-84
2022/09/18 07:54:19;;;;;;;;;;;17.80;72.30;;;-151.14;100.00;62537.16;4237760;33;19903;-85
2022/09/18 07:57:06;;;;;;;;;;;17.80;72.40;;;-151.14;100.00;62537.16;4237751;33;20232;-84
2022/09/18 07:59:46;;;;;;;;;;;17.80;72.30;;;-151.14;100.00;62537.16;4285280;33;19902;-85
2022/09/18 08:02:14;;;;;;;;;;;17.90;72.00;;;-151.14;100.00;62537.16;4237872;33;19903;-85
2022/09/18 08:04:43;;;;;;;;;;;17.90;72.10;;;-151.14;100.00;62537.16;4237773;33;19902;-85
2022/09/18 08:07:18;;;;;;;;;;;18.00;71.80;;;-151.14;100.00;62537.16;4261264;33;20005;-85
2022/09/18 08:10:09;;;;;;;;;;;18.00;71.80;;;-151.14;100.00;62537.16;4237653;33;19994;-84
2022/09/18 08:12:58;;;;;;;;;;;18.00;71.60;;;-151.14;100.00;62537.16;4293245;33;19901;-85
2022/09/18 08:15:46;;;;;;;;;;;18.00;71.50;;;-151.14;100.00;62537.16;4289871;33;19902;-85
2022/09/18 08:18:27;;;;;;;;;;;18.00;70.80;;;-151.14;100.00;62537.16;4265861;33;20224;-84
2022/09/18 08:21:10;;;;;;;;;;;18.00;71.30;;;-151.14;100.00;62537.16;4338880;32;19965;-85
2022/09/18 08:23:48;;;;;;;;;;;18.00;71.80;;;-151.14;100.00;62537.16;4289924;33;20122;-85
2022/09/18 08:26:16;;;;;;;;;;;17.90;71.60;;;-151.14;100.00;62537.16;4265924;33;19909;-84
2022/09/18 08:28:47;;;;;;;;;;;17.90;71.80;;;-151.14;100.00;62537.16;4265831;33;20013;-85
2022/09/18 08:31:15;;;;;;;;;;;17.80;71.90;;;18.16;100.00;62537.16;4313835;33;19909;-85
2022/09/18 08:33:45;;;;;;;;;;;17.80;72.00;;;-151.14;100.00;62537.16;4265223;33;19909;-84
2022/09/18 08:36:14;;;;;;;;;;;17.80;72.00;;;-151.14;100.00;62537.16;4289793;33;19901;-85
2022/09/18 08:38:54;;;;;;;;;;;17.80;71.80;;;-151.14;100.00;62537.16;4289745;33;19916;-85
2022/09/18 08:41:53;;;;;;;;;;;17.80;72.20;;;17.06;100.00;62537.16;4289657;33;19978;-85
2022/09/18 08:44:25;;;;;;;;;;;17.80;71.70;;;17.08;100.00;83467.94;4265678;33;20020;-85
2022/09/18 08:47:01;;;;;;;;;;;17.90;72.10;;;-151.14;100.00;62537.16;4265759;33;19909;-85
2022/09/18 08:49:32;;;;;;;;;;;17.90;72.20;;;-151.14;100.00;62537.16;4289577;33;19901;-86
2022/09/18 08:52:09;;;;;;;;;;;17.90;71.90;;;18.08;100.00;62537.16;4265534;33;19902;-85
2022/09/18 08:54:46;;;;;;;;;;;17.90;71.90;;;-151.14;100.00;62537.16;4265689;33;19909;-86
2022/09/18 08:57:43;;;;;;;;;;;18.00;71.80;;;-151.14;100.00;62537.16;4265536;33;20012;-85
2022/09/18 09:00:21;;;;;;;;;;;18.00;71.70;;;-151.14;100.00;62537.16;4265438;33;19939;-85
2022/09/18 09:03:02;;;;;;;;;;;18.00;71.80;;;-151.14;100.00;62537.16;4265602;33;20003;-85
2022/09/18 09:05:32;;;;;;;;;;;17.90;71.80;;;-151.14;100.00;62537.16;4265435;33;20137;-85
2022/09/18 09:08:16;;;;;;;;;;;17.90;71.80;;;17.06;100.00;62537.16;4265232;33;20126;-85
2022/09/18 09:10:50;;;;;;;;;;;17.90;71.80;;;-151.14;100.00;62537.16;4337989;32;19902;-84
2022/09/18 09:13:52;;;;;;;;;;;17.90;71.70;;;-151.14;100.00;62537.16;4265509;33;19994;-85
2022/09/18 09:16:27;;;;;;;;;;;17.90;71.80;;;-151.14;100.00;62537.16;4313467;33;20244;-84
2022/09/18 09:19:00;;;;;;;;;;;17.90;71.90;;;-151.14;100.00;62537.16;4313250;33;19902;-84
2022/09/18 09:21:48;;;;;;;;;;;17.90;72.10;;;-151.14;100.00;62537.16;4289294;33;19909;-85
2022/09/18 09:24:28;;;;;;;;;;;17.90;72.10;;;-151.14;100.00;62537.16;4265235;33;20237;-85
2022/09/18 09:27:18;;;;;;;;;;;17.90;72.00;;;-151.14;100.00;62537.16;4289082;33;20136;-85
2022/09/18 09:30:08;;;;;;;;;;;17.90;71.80;;;16.98;100.00;62537.16;4284103;33;19902;-84
2022/09/18 09:32:52;;;;;;;;;;;17.80;71.90;;;16.96;100.00;62537.16;4284261;33;20298;-85
2022/09/18 09:35:38;;;;;;;;;;;17.80;71.90;;;16.92;100.00;83446.56;4236748;33;19910;-85
2022/09/18 09:38:35;;;;;;;;;;;17.80;71.90;;;16.88;100.00;83440.91;4283923;33;20271;-85
2022/09/18 09:41:12;;;;;;;;;;;17.70;72.00;;;16.85;100.00;62537.16;4260284;33;19902;-86
2022/09/18 09:43:44;;;;;;;;;;;17.70;72.30;;;16.83;100.00;62537.16;4283536;33;20000;-85
2022/09/18 09:46:18;;;;;;;;;;;17.70;72.00;;;16.80;100.00;83429.50;4283910;33;19969;-85
2022/09/18 09:48:52;;;;;;;;;;;17.60;72.30;;;-151.14;100.00;62537.16;4260303;33;19903;-85
2022/09/18 09:51:25;;;;;;;;;;;17.60;72.60;;;-151.14;100.00;62537.16;4260263;33;19903;-85
2022/09/18 09:53:54;;;;;;;;;;;17.60;72.70;;;16.70;100.00;62537.16;4236775;33;19902;-85
2022/09/18 09:56:29;;;;;;;;;;;17.60;72.30;;;16.69;100.00;62537.16;4260170;33;20168;-85
2022/09/18 09:59:02;;;;;;;;;;;17.50;72.70;;;-151.14;100.00;62537.16;4259885;33;20025;-85
2022/09/18 10:01:34;;;;;;;;;;;17.50;72.80;;;16.64;100.00;62537.16;4236621;33;20009;-85
2022/09/18 10:04:18;;;;;;;;;;;17.50;71.90;;;-151.14;100.00;62537.16;4236454;33;20328;-85
2022/09/18 10:06:51;;;;;;;;;;;17.50;72.50;;;16.75;100.00;62537.16;4259971;33;19992;-84
2022/09/18 10:09:27;;;;;;;;;;;17.50;72.80;;;-151.14;100.00;62537.16;4236462;33;19910;-85
2022/09/18 10:11:59;;;;;;;;;;;17.50;73.10;;;16.60;100.00;62537.16;4260113;33;20214;-85
2022/09/18 10:14:31;;;;;;;;;;;17.40;71.80;;;16.60;100.00;83401.78;4283971;33;19902;-85
2022/09/18 10:17:00;;;;;;;;;;;17.40;72.70;;;16.60;100.00;83401.78;4307887;33;19909;-85
2022/09/18 10:19:36;;;;;;;;;;;17.40;72.20;;;-151.14;100.00;62537.16;4307795;33;19902;-84
2022/09/18 10:22:07;;;;;;;;;;;17.40;71.40;;;16.59;100.00;83400.38;4236146;33;19909;-85
2022/09/18 10:24:46;;;;;;;;;;;17.40;71.70;;;16.59;100.00;106994.31;4283632;33;19902;-85
2022/09/18 10:27:17;;;;;;;;;;;17.40;72.20;;;16.58;100.00;83398.97;4307909;33;20001;-85
2022/09/18 10:29:47;;;;;;;;;;;17.40;71.60;;;16.57;100.00;83398.25;4283527;33;20002;-85
2022/09/18 10:32:34;;;;;;;;;;;17.40;71.90;;;16.56;100.00;83397.53;4283528;33;19910;-84
2022/09/18 10:35:41;;;;;;;;;;;17.40;72.20;;;16.56;100.00;83396.81;4259633;33;19902;-84
2022/09/18 10:38:41;;;;;;;;;;;17.40;72.50;;;16.58;100.00;83398.97;4283248;33;20006;-84
2022/09/18 10:41:34;;;;;;;;;;;17.40;72.80;;;-151.14;100.00;62537.16;4202471;34;19903;-85
2022/09/18 10:44:25;;;;;;;;;;;17.40;72.70;;;16.59;100.00;83401.09;4237302;33;19964;-84
2022/09/18 10:47:03;;;;;;;;;;;17.40;72.50;;;16.60;100.00;62537.16;4312475;33;19909;-83
2022/09/18 10:49:34;;;;;;;;;;;17.50;72.60;;;16.62;100.00;62537.16;4288159;33;20130;-84
2022/09/18 10:52:26;;;;;;;;;;;17.50;72.20;;;16.64;100.00;83407.47;4264345;33;20129;-85
2022/09/18 10:55:08;;;;;;;;;;;17.50;72.00;;;16.65;100.00;62537.16;4288074;33;20011;-85
2022/09/18 10:57:43;;;;;;;;;;;17.50;72.50;;;16.66;100.00;83411.03;4263900;33;19902;-85
2022/09/18 11:00:36;;;;;;;;;;;17.50;72.10;;;16.67;100.00;83411.75;4312526;32;19902;-85
2022/09/18 11:03:21;;;;;;;;;;;17.50;71.80;;;16.67;100.00;83411.75;4264329;33;19917;-84
2022/09/18 11:05:53;;;;;;;;;;;17.50;71.70;;;16.68;100.00;62537.16;4287940;33;19902;-84
2022/09/18 11:08:26;;;;;;;;;;;17.50;72.20;;;16.68;100.00;62537.16;4263853;33;23621;-84
2022/09/18 11:11:03;;;;;;;;;;;17.50;72.20;;;16.66;100.00;62537.16;4264211;33;20000;-84
2022/09/18 11:13:36;;;;;;;;;;;17.50;72.30;;;16.65;100.00;62537.16;4264071;33;19902;-84
2022/09/18 11:16:06;;;;;;;;;;;17.50;72.30;;;16.64;100.00;62537.16;4287950;33;19902;-84
2022/09/18 11:18:35;;;;;;;;;;;17.50;72.50;;;16.62;100.00;62537.16;4264049;33;19902;-84
2022/09/18 11:21:05;;;;;;;;;;;17.50;71.80;;;-151.14;100.00;62537.16;4263885;33;19901;-84
2022/09/18 11:23:36;;;;;;;;;;;17.50;72.00;;;-151.14;100.00;62537.16;4287986;33;19909;-84
2022/09/18 11:26:19;;;;;;;;;;;17.50;72.20;;;16.60;100.00;62537.16;4263697;33;19909;-84
2022/09/18 11:29:01;;;;;;;;;;;17.40;71.00;;;16.59;100.00;62537.16;4263828;33;19950;-84
2022/09/18 11:31:42;;;;;;;;;;;17.40;70.50;;;-151.14;100.00;62537.16;4287681;33;19996;-84